createdAt,value
2023-03-15T00:01:24.206Z,6.00
2023-03-15T00:04:09.964Z,5.90
2023-03-15T00:06:56.066Z,6.10
2023-03-15T00:09:43.178Z,6.00
2023-03-15T00:12:28.971Z,6.40
2023-03-15T00:15:15.584Z,6.50
2023-03-15T00:18:03.353Z,6.70
2023-03-15T00:20:49.680Z,6.80
2023-03-15T00:23:35.251Z,6.90
2023-03-15T00:26:22.814Z,7.00
2023-03-15T00:29:08.916Z,7.00
2023-03-15T00:31:54.958Z,7.10
2023-03-15T00:34:41.122Z,6.90
2023-03-15T00:37:27.170Z,6.90
2023-03-15T00:40:13.345Z,7.00
2023-03-15T00:43:00.793Z,7.20
2023-03-15T00:45:46.128Z,7.10
2023-03-15T00:48:32.025Z,7.00
2023-03-15T00:51:19.961Z,7.10
2023-03-15T00:54:06.002Z,7.10
2023-03-15T00:56:51.512Z,7.00
2023-03-15T00:59:38.433Z,6.60
2023-03-15T01:02:24.281Z,6.70
2023-03-15T01:05:10.726Z,7.00
2023-03-15T01:07:56.590Z,7.00
2023-03-15T01:10:42.891Z,6.80
2023-03-15T01:13:29.307Z,6.80
2023-03-15T01:16:16.413Z,6.80
2023-03-15T01:19:02.362Z,6.70
2023-03-15T01:21:48.177Z,6.80
2023-03-15T01:24:36.034Z,6.60
2023-03-15T01:27:21.589Z,6.70
2023-03-15T01:30:08.408Z,6.60
2023-03-15T01:32:56.721Z,6.60
2023-03-15T01:35:42.431Z,6.70
2023-03-15T01:38:28.891Z,6.50
2023-03-15T01:41:16.379Z,6.10
2023-03-15T01:44:02.195Z,6.10
2023-03-15T01:46:48.245Z,6.10
2023-03-15T01:49:44.164Z,6.10
2023-03-15T01:52:34.159Z,6.00
2023-03-15T01:55:20.957Z,5.90
2023-03-15T01:58:29.274Z,6.00
2023-03-15T02:01:16.538Z,6.10
2023-03-15T02:04:09.794Z,6.00
2023-03-15T02:07:03.648Z,6.10
2023-03-15T02:09:57.607Z,6.30
2023-03-15T02:12:47.020Z,6.20
2023-03-15T02:15:33.204Z,6.20
2023-03-15T02:18:22.648Z,5.90
2023-03-15T02:21:18.542Z,6.00
2023-03-15T02:24:19.648Z,6.10
2023-03-15T02:27:05.799Z,6.00
2023-03-15T02:29:53.431Z,6.10
2023-03-15T02:32:40.795Z,6.00
2023-03-15T02:35:29.110Z,6.00
2023-03-15T02:38:14.654Z,6.00
2023-03-15T02:41:02.572Z,5.70
2023-03-15T02:43:52.942Z,5.60
2023-03-15T02:46:40.679Z,5.60
2023-03-15T02:49:30.145Z,5.50
2023-03-15T02:52:16.020Z,5.60
2023-03-15T02:55:02.226Z,5.60
2023-03-15T02:57:48.672Z,5.60
2023-03-15T03:00:34.154Z,5.50
2023-03-15T03:03:21.509Z,5.60
2023-03-15T03:06:08.223Z,5.70
2023-03-15T03:08:55.997Z,5.60
2023-03-15T03:11:42.578Z,5.40
2023-03-15T03:14:28.582Z,5.20
2023-03-15T03:17:15.821Z,5.50
2023-03-15T03:20:04.901Z,5.50
2023-03-15T03:22:55.949Z,5.40
2023-03-15T03:25:41.868Z,5.20
2023-03-15T03:28:30.760Z,5.30
2023-03-15T03:31:18.951Z,5.50
2023-03-15T03:34:04.875Z,5.50
2023-03-15T03:36:52.010Z,5.50
2023-03-15T03:39:48.161Z,5.50
2023-03-15T03:42:35.536Z,5.50
2023-03-15T03:45:22.110Z,5.50
2023-03-15T03:48:11.899Z,5.50
2023-03-15T03:50:58.887Z,5.50
2023-03-15T03:53:46.623Z,5.10
2023-03-15T03:56:32.337Z,5.20
2023-03-15T03:59:18.137Z,5.20
2023-03-15T04:02:17.850Z,5.40
2023-03-15T04:05:13.914Z,5.40
2023-03-15T04:08:00.372Z,5.50
2023-03-15T04:10:55.607Z,5.40
2023-03-15T04:13:44.932Z,5.30
2023-03-15T04:16:30.932Z,5.50
2023-03-15T04:19:23.564Z,5.30
2023-03-15T04:22:15.227Z,5.40
2023-03-15T04:25:15.909Z,5.30
2023-03-15T04:28:20.014Z,5.30
2023-03-15T04:31:18.512Z,5.30
2023-03-15T04:34:18.016Z,5.20
2023-03-15T04:37:20.436Z,5.30
2023-03-15T04:40:28.060Z,5.30
2023-03-15T04:43:24.378Z,5.30
2023-03-15T04:46:34.025Z,5.50
2023-03-15T04:49:32.472Z,5.40
2023-03-15T04:52:36.902Z,5.20
2023-03-15T04:55:45.440Z,5.50
2023-03-15T04:58:42.520Z,5.70
2023-03-15T05:01:53.200Z,5.70
2023-03-15T05:04:48.471Z,5.70
2023-03-15T05:07:40.140Z,5.70
2023-03-15T05:10:38.570Z,5.70
2023-03-15T05:13:33.874Z,5.80
2023-03-15T05:16:44.117Z,5.90
2023-03-15T05:19:46.092Z,5.80
2023-03-15T05:23:01.109Z,5.80
2023-03-15T05:25:57.052Z,6.00
2023-03-15T05:29:02.277Z,5.90
2023-03-15T05:32:00.457Z,5.90
2023-03-15T05:34:54.788Z,5.80
2023-03-15T05:38:01.356Z,5.90
2023-03-15T05:41:06.507Z,6.00
2023-03-15T05:44:01.691Z,6.00
2023-03-15T05:47:17.038Z,5.90
2023-03-15T05:50:19.387Z,6.10
2023-03-15T05:53:34.865Z,6.10
2023-03-15T05:56:41.389Z,6.00
2023-03-15T05:59:54.735Z,5.90
2023-03-15T06:03:01.514Z,6.00
2023-03-15T06:05:59.883Z,6.10
2023-03-15T06:08:53.639Z,6.40
2023-03-15T06:11:39.805Z,6.40
2023-03-15T06:14:28.864Z,6.40
2023-03-15T06:17:18.258Z,6.40
2023-03-15T06:20:05.802Z,6.60
2023-03-15T06:22:52.987Z,6.40
2023-03-15T06:25:50.413Z,6.60
2023-03-15T06:28:40.030Z,6.70
2023-03-15T06:31:26.036Z,6.80
2023-03-15T06:34:23.453Z,6.80
2023-03-15T06:37:16.390Z,6.90
2023-03-15T06:40:08.507Z,7.10
2023-03-15T06:42:54.780Z,7.30
2023-03-15T06:45:41.202Z,7.80
2023-03-15T06:48:29.807Z,8.40
2023-03-15T06:51:16.602Z,9.00
2023-03-15T06:54:03.898Z,9.80
2023-03-15T06:56:52.326Z,10.60
2023-03-15T06:59:37.796Z,11.50
2023-03-15T07:02:23.671Z,12.40
2023-03-15T07:05:11.103Z,13.40
2023-03-15T07:07:56.862Z,14.30
2023-03-15T07:10:43.622Z,15.20
2023-03-15T07:13:29.530Z,15.80
2023-03-15T07:16:15.099Z,16.40
2023-03-15T07:19:01.474Z,17.00
2023-03-15T07:21:46.869Z,17.40
2023-03-15T07:24:32.724Z,17.60
2023-03-15T07:27:20.000Z,17.80
2023-03-15T07:30:08.251Z,17.90
2023-03-15T07:32:53.818Z,17.60
2023-03-15T07:35:40.168Z,16.60
2023-03-15T07:38:26.413Z,16.00
2023-03-15T07:41:12.196Z,15.20
2023-03-15T07:44:06.443Z,14.60
2023-03-15T07:46:52.278Z,14.30
2023-03-15T07:49:37.905Z,14.10
2023-03-15T07:52:23.388Z,13.90
2023-03-15T07:55:09.920Z,13.70
2023-03-15T07:57:55.331Z,13.60
2023-03-15T08:00:42.597Z,13.80
2023-03-15T08:03:28.284Z,13.50
2023-03-15T08:06:14.313Z,13.50
2023-03-15T08:09:01.620Z,13.60
2023-03-15T08:11:47.204Z,13.90
2023-03-15T08:14:33.505Z,14.20
2023-03-15T08:17:21.196Z,14.70
2023-03-15T08:20:11.470Z,15.10
2023-03-15T08:22:57.039Z,15.30
2023-03-15T08:25:42.974Z,15.80
2023-03-15T08:28:28.485Z,16.20
2023-03-15T08:31:14.303Z,17.00
2023-03-15T08:34:01.672Z,17.80
2023-03-15T08:36:47.901Z,18.50
2023-03-15T08:39:36.345Z,18.90
2023-03-15T08:42:22.329Z,18.60
2023-03-15T08:45:09.760Z,18.70
2023-03-15T08:47:56.854Z,19.20
2023-03-15T08:50:44.070Z,19.80
2023-03-15T08:53:31.236Z,20.00
2023-03-15T08:56:16.755Z,20.00
2023-03-15T08:59:02.442Z,21.00
2023-03-15T09:01:48.033Z,22.00
2023-03-15T09:04:33.892Z,22.50
2023-03-15T09:07:21.918Z,22.90
2023-03-15T09:10:08.289Z,22.70
2023-03-15T09:12:54.165Z,23.10
2023-03-15T09:15:39.818Z,23.20
2023-03-15T09:18:25.737Z,22.60
2023-03-15T09:21:11.842Z,22.70
2023-03-15T09:23:58.866Z,23.00
2023-03-15T09:26:44.553Z,23.40
2023-03-15T09:29:30.706Z,23.80
2023-03-15T09:32:16.258Z,23.70
2023-03-15T09:35:02.791Z,24.30
2023-03-15T09:37:49.650Z,23.40
2023-03-15T09:40:41.101Z,23.00
2023-03-15T09:44:01.876Z,23.50
2023-03-15T09:46:57.933Z,23.50
2023-03-15T09:49:48.535Z,23.10
2023-03-15T09:52:40.232Z,23.30
2023-03-15T09:55:27.466Z,23.80
2023-03-15T09:58:18.273Z,22.70
2023-03-15T10:01:06.809Z,23.60
2023-03-15T10:03:53.395Z,23.60
2023-03-15T10:06:46.129Z,24.20
2023-03-15T10:09:33.688Z,24.30
2023-03-15T10:12:25.322Z,25.20
2023-03-15T10:15:28.806Z,24.60
2023-03-15T10:18:27.987Z,23.50
2023-03-15T10:21:21.245Z,23.20
2023-03-15T10:24:16.028Z,24.60
2023-03-15T10:27:14.281Z,25.70
2023-03-15T10:30:01.615Z,25.10
2023-03-15T10:32:54.439Z,25.40
2023-03-15T10:35:42.800Z,26.10
2023-03-15T10:38:29.299Z,26.10
2023-03-15T10:41:29.321Z,25.00
2023-03-15T10:44:16.654Z,24.80
2023-03-15T10:47:21.533Z,25.00
2023-03-15T10:50:18.220Z,24.70
2023-03-15T10:53:10.397Z,24.90
2023-03-15T10:56:02.160Z,24.70
2023-03-15T10:59:02.284Z,22.50
2023-03-15T11:02:08.038Z,21.50
2023-03-15T11:05:06.480Z,20.70
2023-03-15T11:07:58.896Z,22.30
2023-03-15T11:10:46.217Z,23.40
2023-03-15T11:13:33.663Z,23.70
2023-03-15T11:16:21.584Z,24.00
2023-03-15T11:19:15.190Z,24.90
2023-03-15T11:22:02.777Z,26.10
2023-03-15T11:24:49.830Z,26.00
2023-03-15T11:27:35.752Z,24.80
2023-03-15T11:30:27.410Z,23.10
2023-03-15T11:33:18.479Z,22.30
2023-03-15T11:36:10.610Z,23.20
2023-03-15T11:39:02.885Z,22.10
2023-03-15T11:41:56.507Z,20.40
2023-03-15T11:44:46.821Z,21.40
2023-03-15T11:47:43.323Z,22.50
2023-03-15T11:50:30.050Z,22.40
2023-03-15T11:53:17.105Z,23.20
2023-03-15T11:56:23.591Z,22.20
2023-03-15T11:59:13.349Z,21.70
2023-03-15T12:02:01.150Z,21.20
2023-03-15T12:04:47.507Z,22.50
2023-03-15T12:07:56.872Z,22.60
2023-03-15T12:10:47.405Z,22.10
2023-03-15T12:13:34.445Z,22.30
2023-03-15T12:16:28.655Z,22.60
2023-03-15T12:19:16.839Z,22.20
2023-03-15T12:22:02.779Z,22.10
2023-03-15T12:24:48.803Z,22.90
2023-03-15T12:27:36.992Z,21.90
2023-03-15T12:30:25.737Z,20.90
2023-03-15T12:33:17.383Z,21.10
2023-03-15T12:36:09.875Z,21.20
2023-03-15T12:39:01.802Z,22.10
2023-03-15T12:41:50.023Z,21.40
2023-03-15T12:44:41.769Z,20.30
2023-03-15T12:47:44.466Z,20.00
2023-03-15T12:50:52.846Z,19.90
2023-03-15T12:53:52.160Z,20.60
2023-03-15T12:56:44.828Z,21.10
2023-03-15T12:59:35.196Z,20.70
2023-03-15T13:02:42.165Z,21.40
2023-03-15T13:05:34.769Z,22.10
2023-03-15T13:08:24.268Z,22.00
2023-03-15T13:11:18.092Z,21.80
2023-03-15T13:14:18.526Z,21.90
2023-03-15T13:17:17.157Z,20.90
2023-03-15T13:20:37.324Z,19.50
2023-03-15T13:23:27.276Z,18.20
2023-03-15T13:26:38.158Z,17.40
2023-03-15T13:29:29.424Z,16.80
2023-03-15T13:32:17.466Z,16.60
2023-03-15T13:35:03.902Z,16.20
2023-03-15T13:37:49.767Z,16.00
2023-03-15T13:40:46.421Z,15.60
2023-03-15T13:43:34.806Z,15.10
2023-03-15T13:46:25.500Z,15.10
2023-03-15T13:49:13.327Z,15.20
2023-03-15T13:52:01.530Z,15.20
2023-03-15T13:54:47.475Z,15.40
2023-03-15T13:57:34.684Z,15.20
2023-03-15T14:00:23.278Z,15.40
2023-03-15T14:03:14.099Z,15.50
2023-03-15T14:06:00.317Z,15.20
2023-03-15T14:08:46.426Z,15.20
2023-03-15T14:11:37.115Z,15.20
2023-03-15T14:14:26.405Z,15.40
2023-03-15T14:17:24.525Z,15.20
2023-03-15T14:20:16.741Z,15.50
2023-03-15T14:23:04.424Z,15.60
2023-03-15T14:25:55.996Z,14.90
2023-03-15T14:28:42.235Z,14.70
2023-03-15T14:31:34.634Z,14.90
2023-03-15T14:34:24.604Z,14.60
2023-03-15T14:37:29.841Z,14.50
2023-03-15T14:40:21.211Z,14.90
2023-03-15T14:43:08.371Z,15.10
2023-03-15T14:45:54.621Z,15.00
2023-03-15T14:48:45.362Z,15.00
2023-03-15T14:51:33.158Z,15.20
2023-03-15T14:54:19.018Z,15.20
2023-03-15T14:57:04.793Z,14.90
2023-03-15T14:59:51.069Z,14.90
2023-03-15T15:02:37.546Z,14.80
2023-03-15T15:05:27.333Z,14.90
2023-03-15T15:08:16.459Z,15.00
2023-03-15T15:11:07.135Z,15.20
2023-03-15T15:13:53.088Z,15.10
2023-03-15T15:16:39.163Z,14.90
2023-03-15T15:19:25.187Z,14.60
2023-03-15T15:22:12.644Z,14.90
2023-03-15T15:24:58.325Z,15.00
2023-03-15T15:27:44.077Z,15.00
2023-03-15T15:30:31.363Z,14.80
2023-03-15T15:33:17.028Z,14.40
2023-03-15T15:36:04.456Z,14.20
2023-03-15T15:38:52.297Z,13.80
2023-03-15T15:41:38.433Z,13.60
2023-03-15T15:44:27.537Z,13.70
2023-03-15T15:47:13.474Z,13.80
2023-03-15T15:49:59.175Z,14.20
2023-03-15T15:52:48.579Z,14.30
2023-03-15T15:55:39.532Z,14.40
2023-03-15T15:58:25.989Z,14.20
2023-03-15T16:01:13.650Z,14.10
2023-03-15T16:03:59.692Z,13.90
2023-03-15T16:06:49.046Z,13.80
2023-03-15T16:09:37.772Z,13.80
2023-03-15T16:12:25.044Z,13.90
2023-03-15T16:15:12.581Z,13.50
2023-03-15T16:17:59.129Z,13.50
2023-03-15T16:20:45.653Z,13.80
2023-03-15T16:23:32.649Z,13.30
2023-03-15T16:26:18.196Z,13.30
2023-03-15T16:29:13.675Z,13.40
2023-03-15T16:32:13.901Z,13.50
2023-03-15T16:35:03.905Z,13.30
2023-03-15T16:37:52.438Z,13.40
2023-03-15T16:40:41.184Z,13.40
2023-03-15T16:43:27.676Z,13.00
2023-03-15T16:46:16.317Z,12.80
2023-03-15T16:49:02.230Z,12.90
2023-03-15T16:51:52.398Z,13.00
2023-03-15T16:54:41.615Z,12.90
2023-03-15T16:57:27.800Z,13.10
2023-03-15T17:00:18.649Z,12.90
2023-03-15T17:03:06.081Z,12.80
2023-03-15T17:05:52.007Z,12.90
2023-03-15T17:08:38.091Z,12.60
2023-03-15T17:11:25.679Z,12.50
2023-03-15T17:14:16.312Z,12.40
2023-03-15T17:17:02.149Z,12.30
2023-03-15T17:19:49.862Z,12.10
2023-03-15T17:22:36.242Z,12.00
2023-03-15T17:25:22.986Z,12.00
2023-03-15T17:28:09.073Z,11.90
2023-03-15T17:31:08.960Z,11.80
2023-03-15T17:34:01.839Z,11.70
2023-03-15T17:36:49.153Z,11.60
2023-03-15T17:39:34.964Z,11.60
2023-03-15T17:42:21.206Z,11.40
2023-03-15T17:45:20.642Z,11.20
2023-03-15T17:48:07.321Z,11.10
2023-03-15T17:50:53.547Z,10.90
2023-03-15T17:53:40.925Z,11.00
2023-03-15T17:56:27.546Z,10.80
2023-03-15T17:59:14.260Z,10.70
2023-03-15T18:02:00.657Z,10.60
2023-03-15T18:04:47.261Z,10.50
2023-03-15T18:07:34.342Z,10.50
2023-03-15T18:10:21.980Z,10.60
2023-03-15T18:13:11.069Z,10.50
2023-03-15T18:15:57.576Z,10.60
2023-03-15T18:18:43.995Z,10.50
2023-03-15T18:21:30.809Z,10.50
2023-03-15T18:24:17.434Z,10.30
2023-03-15T18:27:05.373Z,10.30
2023-03-15T18:29:52.959Z,10.50
2023-03-15T18:32:38.967Z,10.40
2023-03-15T18:35:27.175Z,10.20
2023-03-15T18:38:12.771Z,10.30
2023-03-15T18:40:58.452Z,10.30
2023-03-15T18:43:52.120Z,10.30
2023-03-15T18:46:37.880Z,10.30
2023-03-15T18:49:23.897Z,10.30
2023-03-15T18:52:13.826Z,10.10
2023-03-15T18:54:59.930Z,10.20
2023-03-15T18:57:46.480Z,10.20
2023-03-15T19:00:36.135Z,10.20
2023-03-15T19:03:22.129Z,10.20
2023-03-15T19:06:09.852Z,10.30
2023-03-15T19:08:57.101Z,10.20
2023-03-15T19:11:43.551Z,10.30
2023-03-15T19:14:29.373Z,10.20
2023-03-15T19:17:17.505Z,10.10
2023-03-15T19:20:04.061Z,10.00
2023-03-15T19:22:49.953Z,10.00
2023-03-15T19:25:35.713Z,10.10
2023-03-15T19:28:21.825Z,10.10
2023-03-15T19:31:07.576Z,10.10
2023-03-15T19:33:54.769Z,10.10
2023-03-15T19:36:43.700Z,10.00
2023-03-15T19:39:29.587Z,10.00
2023-03-15T19:42:15.920Z,9.90
2023-03-15T19:45:02.496Z,9.90
2023-03-15T19:47:48.425Z,9.60
2023-03-15T19:50:35.518Z,9.50
2023-03-15T19:53:21.285Z,9.30
2023-03-15T19:56:08.392Z,9.20
2023-03-15T19:58:55.035Z,9.20
2023-03-15T20:01:41.250Z,9.10
2023-03-15T20:04:27.447Z,9.00
2023-03-15T20:07:14.739Z,9.30
2023-03-15T20:10:05.255Z,9.60
2023-03-15T20:12:58.915Z,9.70
2023-03-15T20:15:44.956Z,9.70
2023-03-15T20:18:31.484Z,9.80
2023-03-15T20:21:17.384Z,9.90
2023-03-15T20:24:06.749Z,10.00
2023-03-15T20:26:52.802Z,9.60
2023-03-15T20:29:38.321Z,9.80
2023-03-15T20:32:23.966Z,9.70
2023-03-15T20:35:09.898Z,9.70
2023-03-15T20:37:56.290Z,9.40
2023-03-15T20:40:44.100Z,9.70
2023-03-15T20:43:29.622Z,9.40
2023-03-15T20:46:16.747Z,9.30
2023-03-15T20:49:02.495Z,9.20
2023-03-15T20:51:48.056Z,9.30
2023-03-15T20:54:34.103Z,9.40
2023-03-15T20:57:21.924Z,9.40
2023-03-15T21:00:12.709Z,9.20
2023-03-15T21:02:58.985Z,9.40
2023-03-15T21:05:46.296Z,9.40
2023-03-15T21:08:33.791Z,9.40
2023-03-15T21:11:20.597Z,9.40
2023-03-15T21:14:08.686Z,9.40
2023-03-15T21:17:02.182Z,9.00
2023-03-15T21:19:48.926Z,8.90
2023-03-15T21:22:34.968Z,8.80
2023-03-15T21:25:21.105Z,9.00
2023-03-15T21:28:07.673Z,8.80
2023-03-15T21:30:55.952Z,8.90
2023-03-15T21:33:53.480Z,9.20
2023-03-15T21:36:39.850Z,9.10
2023-03-15T21:39:26.353Z,9.30
2023-03-15T21:42:12.087Z,9.10
2023-03-15T21:45:00.048Z,9.00
2023-03-15T21:47:47.602Z,8.90
2023-03-15T21:50:33.828Z,9.10
2023-03-15T21:53:19.337Z,9.20
2023-03-15T21:56:05.181Z,9.20
2023-03-15T21:58:52.611Z,9.10
2023-03-15T22:01:37.961Z,9.00
2023-03-15T22:04:25.167Z,9.30
2023-03-15T22:07:11.467Z,9.10
2023-03-15T22:09:57.146Z,9.30
2023-03-15T22:12:43.409Z,9.20
2023-03-15T22:15:29.389Z,9.20
2023-03-15T22:18:14.976Z,8.80
2023-03-15T22:21:01.940Z,8.70
2023-03-15T22:23:47.423Z,8.90
2023-03-15T22:26:33.668Z,9.00
2023-03-15T22:29:19.591Z,8.90
2023-03-15T22:32:05.901Z,8.70
2023-03-15T22:34:51.838Z,8.80
2023-03-15T22:37:38.863Z,8.60
2023-03-15T22:40:27.252Z,8.50
2023-03-15T22:43:13.576Z,8.70
2023-03-15T22:45:59.439Z,8.60
2023-03-15T22:48:44.910Z,8.70
2023-03-15T22:51:34.486Z,8.70
2023-03-15T22:54:27.275Z,8.70
2023-03-15T22:57:15.744Z,8.50
2023-03-15T23:00:02.031Z,8.40
2023-03-15T23:02:47.794Z,8.40
2023-03-15T23:05:33.865Z,8.40
2023-03-15T23:08:19.525Z,8.20
2023-03-15T23:11:06.472Z,8.20
2023-03-15T23:13:52.658Z,8.40
2023-03-15T23:16:38.434Z,8.70
2023-03-15T23:19:23.914Z,8.70
2023-03-15T23:22:09.997Z,8.60
2023-03-15T23:24:58.105Z,8.70
2023-03-15T23:27:45.638Z,8.70
2023-03-15T23:30:35.107Z,8.40
2023-03-15T23:33:21.032Z,8.30
2023-03-15T23:36:07.338Z,8.30
2023-03-15T23:38:53.310Z,8.30
2023-03-15T23:41:39.111Z,8.40
2023-03-15T23:44:26.137Z,8.50
2023-03-15T23:47:12.333Z,8.40
2023-03-15T23:49:57.978Z,8.40
2023-03-15T23:52:43.366Z,8.30
2023-03-15T23:55:29.316Z,8.30
2023-03-15T23:58:14.935Z,8.10
